createdAt,value
2022-08-17T00:02:25.369Z,99.90
2022-08-17T00:04:31.014Z,99.90
2022-08-17T00:06:35.767Z,99.90
2022-08-17T00:08:42.540Z,99.90
2022-08-17T00:10:47.596Z,99.90
2022-08-17T00:12:52.493Z,99.90
2022-08-17T00:14:56.966Z,99.90
2022-08-17T00:17:03.865Z,99.90
2022-08-17T00:19:13.993Z,99.90
2022-08-17T00:21:23.719Z,99.90
2022-08-17T00:23:30.112Z,99.90
2022-08-17T00:25:35.198Z,99.90
2022-08-17T00:27:39.473Z,99.90
2022-08-17T00:29:45.547Z,99.90
2022-08-17T00:31:50.175Z,99.90
2022-08-17T00:33:54.721Z,99.90
2022-08-17T00:36:01.549Z,99.90
2022-08-17T00:38:09.940Z,99.90
2022-08-17T00:40:16.399Z,99.90
2022-08-17T00:42:21.397Z,99.90
2022-08-17T00:44:30.352Z,99.90
2022-08-17T00:46:36.432Z,99.90
2022-08-17T00:48:41.033Z,99.90
2022-08-17T00:50:51.567Z,99.90
2022-08-17T00:52:58.825Z,99.90
2022-08-17T00:55:03.969Z,99.90
2022-08-17T00:57:11.970Z,99.90
2022-08-17T00:59:21.893Z,99.90
2022-08-17T01:01:26.032Z,99.90
2022-08-17T01:03:31.239Z,99.90
2022-08-17T01:05:42.081Z,99.90
2022-08-17T01:07:50.092Z,99.90
2022-08-17T01:09:56.321Z,99.90
2022-08-17T01:12:03.598Z,99.90
2022-08-17T01:14:09.012Z,99.90
2022-08-17T01:16:18.219Z,99.90
2022-08-17T01:18:22.668Z,99.90
2022-08-17T01:20:29.670Z,99.90
2022-08-17T01:22:35.521Z,99.90
2022-08-17T01:24:42.456Z,99.90
2022-08-17T01:26:47.655Z,99.90
2022-08-17T01:28:55.822Z,99.90
2022-08-17T01:31:05.701Z,99.90
2022-08-17T01:33:11.510Z,99.90
2022-08-17T01:35:15.872Z,99.90
2022-08-17T01:37:21.450Z,99.90
2022-08-17T01:39:31.117Z,99.90
2022-08-17T01:41:36.215Z,99.90
2022-08-17T01:43:45.578Z,99.90
2022-08-17T01:46:02.711Z,99.90
2022-08-17T01:48:08.342Z,99.90
2022-08-17T01:50:16.487Z,99.90
2022-08-17T01:52:23.856Z,99.90
2022-08-17T01:54:29.779Z,99.90
2022-08-17T01:56:36.995Z,99.90
2022-08-17T01:58:43.479Z,99.90
2022-08-17T02:01:00.924Z,99.90
2022-08-17T02:03:06.583Z,99.90
2022-08-17T02:05:10.962Z,99.90
2022-08-17T02:07:17.294Z,99.90
2022-08-17T02:09:23.427Z,99.90
2022-08-17T02:11:32.302Z,99.90
2022-08-17T02:13:38.090Z,99.90
2022-08-17T02:15:42.325Z,99.90
2022-08-17T02:17:46.678Z,99.90
2022-08-17T02:19:59.080Z,99.90
2022-08-17T02:22:03.372Z,99.90
2022-08-17T02:24:09.545Z,99.90
2022-08-17T02:26:25.551Z,99.90
2022-08-17T02:28:32.385Z,99.90
2022-08-17T02:31:01.725Z,99.90
2022-08-17T02:33:04.140Z,99.90
2022-08-17T02:35:11.284Z,99.90
2022-08-17T02:37:17.648Z,99.90
2022-08-17T02:39:21.996Z,99.90
2022-08-17T02:41:26.202Z,99.90
2022-08-17T02:43:32.495Z,99.90
2022-08-17T02:45:38.291Z,99.90
2022-08-17T02:47:42.835Z,99.90
2022-08-17T02:49:54.264Z,99.90
2022-08-17T02:52:00.253Z,99.90
2022-08-17T02:54:40.852Z,99.90
2022-08-17T02:56:29.040Z,99.90
2022-08-17T02:58:36.074Z,99.90
2022-08-17T03:00:44.101Z,99.90
2022-08-17T03:02:48.839Z,99.90
2022-08-17T03:04:53.197Z,99.90
2022-08-17T03:06:57.655Z,99.90
2022-08-17T03:09:02.175Z,99.90
2022-08-17T03:11:06.651Z,99.90
2022-08-17T03:13:12.804Z,99.90
2022-08-17T03:15:21.674Z,99.90
2022-08-17T03:17:25.967Z,99.90
2022-08-17T03:19:30.170Z,99.90
2022-08-17T03:21:34.447Z,99.90
2022-08-17T03:23:41.206Z,99.90
2022-08-17T03:25:46.804Z,99.90
2022-08-17T03:27:51.417Z,99.90
2022-08-17T03:29:56.378Z,99.90
2022-08-17T03:32:02.213Z,99.90
2022-08-17T03:34:06.448Z,99.90
2022-08-17T03:36:11.323Z,99.90
2022-08-17T03:38:17.488Z,99.90
2022-08-17T03:40:55.859Z,99.90
2022-08-17T03:42:47.316Z,99.90
2022-08-17T03:44:52.124Z,99.90
2022-08-17T03:47:20.128Z,99.90
2022-08-17T03:49:42.137Z,99.90
2022-08-17T03:52:03.971Z,99.90
2022-08-17T03:54:26.909Z,99.90
2022-08-17T03:56:46.393Z,99.90
2022-08-17T03:58:51.351Z,99.90
2022-08-17T04:00:57.055Z,99.90
2022-08-17T04:03:02.948Z,99.90
2022-08-17T04:05:07.996Z,99.90
2022-08-17T04:07:12.239Z,99.90
2022-08-17T04:09:16.456Z,99.50
2022-08-17T04:11:21.328Z,98.60
2022-08-17T04:13:25.770Z,97.60
2022-08-17T04:15:31.021Z,97.20
2022-08-17T04:17:35.255Z,96.70
2022-08-17T04:19:40.898Z,96.00
2022-08-17T04:21:45.199Z,95.50
2022-08-17T04:23:49.808Z,94.80
2022-08-17T04:25:54.168Z,94.10
2022-08-17T04:28:01.018Z,93.80
2022-08-17T04:30:07.411Z,93.50
2022-08-17T04:32:11.701Z,93.30
2022-08-17T04:34:15.949Z,92.60
2022-08-17T04:36:25.729Z,92.10
2022-08-17T04:38:31.831Z,91.60
2022-08-17T04:40:53.690Z,91.30
2022-08-17T04:43:03.044Z,90.80
2022-08-17T04:45:08.277Z,90.80
2022-08-17T04:47:13.203Z,90.60
2022-08-17T04:49:17.698Z,90.00
2022-08-17T04:51:26.388Z,89.40
2022-08-17T04:53:30.753Z,88.70
2022-08-17T04:55:35.037Z,89.70
2022-08-17T04:57:44.582Z,90.20
2022-08-17T04:59:49.318Z,90.50
2022-08-17T05:01:54.764Z,90.60
2022-08-17T05:04:02.394Z,91.50
2022-08-17T05:06:28.473Z,91.70
2022-08-17T05:08:32.685Z,91.10
2022-08-17T05:10:39.459Z,90.20
2022-08-17T05:12:57.863Z,90.30
2022-08-17T05:15:02.362Z,89.80
2022-08-17T05:17:11.283Z,87.90
2022-08-17T05:19:15.857Z,86.90
2022-08-17T05:21:20.666Z,87.10
2022-08-17T05:23:34.964Z,86.60
2022-08-17T05:25:49.108Z,87.20
2022-08-17T05:27:55.645Z,87.70
2022-08-17T05:30:02.493Z,87.90
2022-08-17T05:32:38.526Z,88.40
2022-08-17T05:34:36.708Z,86.80
2022-08-17T05:36:43.899Z,85.80
2022-08-17T05:38:50.692Z,85.90
2022-08-17T05:40:55.622Z,86.10
2022-08-17T05:43:07.893Z,84.90
2022-08-17T05:45:13.138Z,84.70
2022-08-17T05:47:31.418Z,85.60
2022-08-17T05:49:35.710Z,84.60
2022-08-17T05:52:03.101Z,83.70
2022-08-17T05:54:24.215Z,82.30
2022-08-17T05:56:47.870Z,82.00
2022-08-17T05:59:02.298Z,81.40
2022-08-17T06:01:17.004Z,81.30
2022-08-17T06:03:30.661Z,81.50
2022-08-17T06:05:59.430Z,82.00
2022-08-17T06:08:12.344Z,82.60
2022-08-17T06:10:25.446Z,83.70
2022-08-17T06:12:41.454Z,83.70
2022-08-17T06:14:59.036Z,84.20
2022-08-17T06:17:07.808Z,85.00
2022-08-17T06:19:16.786Z,85.50
2022-08-17T06:21:30.438Z,85.40
2022-08-17T06:23:40.613Z,84.50
2022-08-17T06:25:49.466Z,83.90
2022-08-17T06:27:59.310Z,82.90
2022-08-17T06:30:10.066Z,82.20
2022-08-17T06:32:16.668Z,81.20
2022-08-17T06:34:21.779Z,80.30
2022-08-17T06:36:41.254Z,79.00
2022-08-17T06:38:53.376Z,78.50
2022-08-17T06:41:10.351Z,78.80
2022-08-17T06:43:32.719Z,78.80
2022-08-17T06:45:39.129Z,78.20
2022-08-17T06:47:48.874Z,78.20
2022-08-17T06:49:59.397Z,78.00
2022-08-17T06:52:13.515Z,77.90
2022-08-17T06:54:43.227Z,78.70
2022-08-17T06:56:55.441Z,78.60
2022-08-17T06:59:01.045Z,78.20
2022-08-17T07:01:09.992Z,77.90
2022-08-17T07:03:21.704Z,76.90
2022-08-17T07:05:33.366Z,76.20
2022-08-17T07:07:58.255Z,75.00
2022-08-17T07:10:02.940Z,75.40
2022-08-17T07:12:16.298Z,75.70
2022-08-17T07:14:36.850Z,75.60
2022-08-17T07:16:44.107Z,75.30
2022-08-17T07:18:51.680Z,74.70
2022-08-17T07:21:01.095Z,72.60
2022-08-17T07:23:10.720Z,71.70
2022-08-17T07:25:20.784Z,71.20
2022-08-17T07:27:59.020Z,70.80
2022-08-17T07:30:45.507Z,71.00
2022-08-17T07:33:20.516Z,70.90
2022-08-17T07:35:41.260Z,70.30
2022-08-17T07:37:54.172Z,70.20
2022-08-17T07:40:16.979Z,69.90
2022-08-17T07:42:24.485Z,68.80
2022-08-17T07:44:47.960Z,68.60
2022-08-17T07:47:19.148Z,69.10
2022-08-17T07:49:37.594Z,67.70
2022-08-17T07:52:24.146Z,68.80
2022-08-17T07:54:31.787Z,67.50
2022-08-17T07:56:44.191Z,65.80
2022-08-17T07:58:49.224Z,66.20
2022-08-17T08:01:13.302Z,65.80
2022-08-17T08:03:27.362Z,65.60
2022-08-17T08:06:02.384Z,65.80
2022-08-17T08:08:28.464Z,66.90
2022-08-17T08:10:36.134Z,66.50
2022-08-17T08:12:44.025Z,65.90
2022-08-17T08:14:56.497Z,65.20
2022-08-17T08:17:06.814Z,64.20
2022-08-17T08:19:20.903Z,63.70
2022-08-17T08:21:34.685Z,64.20
2022-08-17T08:23:47.627Z,63.80
2022-08-17T08:26:01.709Z,63.30
2022-08-17T08:28:19.940Z,63.70
2022-08-17T08:30:28.352Z,62.90
2022-08-17T08:33:08.716Z,63.00
2022-08-17T08:35:22.789Z,62.60
2022-08-17T08:37:43.800Z,62.80
2022-08-17T08:40:15.776Z,61.80
2022-08-17T08:42:30.252Z,61.90
2022-08-17T08:45:00.321Z,61.50
2022-08-17T08:47:14.557Z,60.70
2022-08-17T08:50:37.301Z,59.90
2022-08-17T08:52:34.176Z,60.10
2022-08-17T08:54:46.492Z,60.30
2022-08-17T08:57:22.216Z,59.80
2022-08-17T08:59:28.266Z,60.10
2022-08-17T09:01:38.997Z,59.20
2022-08-17T09:04:26.084Z,59.20
2022-08-17T09:06:47.081Z,59.30
2022-08-17T09:09:01.801Z,59.40
2022-08-17T09:11:13.543Z,58.80
2022-08-17T09:13:45.016Z,57.80
2022-08-17T09:15:58.259Z,57.60
2022-08-17T09:19:00.954Z,58.20
2022-08-17T09:20:40.642Z,57.60
2022-08-17T09:22:54.409Z,57.30
2022-08-17T09:25:05.101Z,58.00
2022-08-17T09:27:14.742Z,57.20
2022-08-17T09:29:24.493Z,58.20
2022-08-17T09:31:47.034Z,57.50
2022-08-17T09:33:55.595Z,57.80
2022-08-17T09:36:04.171Z,56.80
2022-08-17T09:38:20.866Z,56.60
2022-08-17T09:40:28.964Z,56.70
2022-08-17T09:42:41.009Z,57.90
2022-08-17T09:44:57.968Z,56.40
2022-08-17T09:47:11.762Z,55.40
2022-08-17T09:49:32.724Z,56.50
2022-08-17T09:51:43.776Z,56.70
2022-08-17T09:53:50.009Z,57.00
2022-08-17T09:56:21.768Z,57.60
2022-08-17T09:58:34.805Z,57.70
2022-08-17T10:00:46.297Z,56.10
2022-08-17T10:03:16.459Z,56.50
2022-08-17T10:05:30.072Z,57.50
2022-08-17T10:07:42.392Z,56.80
2022-08-17T10:10:00.185Z,56.50
2022-08-17T10:12:21.714Z,56.70
2022-08-17T10:14:44.679Z,56.30
2022-08-17T10:17:04.325Z,57.10
2022-08-17T10:19:19.728Z,56.60
2022-08-17T10:21:43.515Z,56.40
2022-08-17T10:24:09.729Z,57.80
2022-08-17T10:26:22.234Z,56.80
2022-08-17T10:28:46.611Z,56.70
2022-08-17T10:31:34.155Z,56.00
2022-08-17T10:33:51.358Z,57.20
2022-08-17T10:36:29.887Z,56.60
2022-08-17T10:38:50.988Z,56.40
2022-08-17T10:41:40.680Z,57.40
2022-08-17T10:44:44.065Z,58.10
2022-08-17T10:47:28.924Z,57.00
2022-08-17T10:49:48.139Z,56.80
2022-08-17T10:52:05.411Z,56.40
2022-08-17T10:54:57.999Z,56.50
2022-08-17T10:57:44.563Z,55.60
2022-08-17T11:00:41.883Z,55.00
2022-08-17T11:02:51.232Z,54.50
2022-08-17T11:05:41.494Z,55.10
2022-08-17T11:08:29.267Z,55.90
2022-08-17T11:11:15.946Z,56.40
2022-08-17T11:13:43.306Z,56.90
2022-08-17T11:16:34.748Z,56.70
2022-08-17T11:19:18.136Z,57.10
2022-08-17T11:22:37.362Z,58.40
2022-08-17T11:25:37.484Z,58.00
2022-08-17T11:27:54.597Z,57.70
2022-08-17T11:30:14.772Z,57.30
2022-08-17T11:32:54.499Z,57.80
2022-08-17T11:35:30.727Z,58.10
2022-08-17T11:38:14.109Z,59.70
2022-08-17T11:40:56.018Z,60.60
2022-08-17T11:48:26.787Z,59.20
2022-08-17T11:51:40.833Z,58.30
2022-08-17T11:55:34.981Z,58.00
2022-08-17T11:59:28.606Z,56.50
2022-08-17T12:02:49.284Z,56.90
2022-08-17T12:06:12.488Z,56.30
2022-08-17T12:08:56.517Z,56.80
2022-08-17T12:11:56.277Z,56.70
2022-08-17T12:15:08.916Z,56.40
2022-08-17T12:18:44.092Z,56.80
2022-08-17T12:29:45.135Z,57.70
2022-08-17T12:32:18.817Z,56.00
2022-08-17T12:35:01.506Z,56.90
2022-08-17T12:38:26.845Z,55.60
2022-08-17T12:45:54.216Z,54.20
2022-08-17T12:49:44.617Z,54.70
2022-08-17T12:53:39.781Z,54.40
2022-08-17T12:57:31.457Z,53.40
2022-08-17T12:59:56.870Z,52.90
2022-08-17T13:03:12.804Z,53.50
2022-08-17T13:06:03.155Z,52.00
2022-08-17T13:14:54.204Z,49.40
2022-08-17T13:17:49.953Z,48.50
2022-08-17T13:20:02.019Z,49.30
2022-08-17T13:22:56.513Z,50.80
2022-08-17T13:25:27.057Z,50.90
2022-08-17T13:27:41.492Z,50.90
2022-08-17T13:32:43.928Z,50.40
2022-08-17T13:35:29.766Z,50.80
2022-08-17T13:37:55.895Z,54.80
2022-08-17T13:40:43.524Z,57.70
2022-08-17T13:43:13.235Z,59.50
2022-08-17T13:45:50.842Z,59.80
2022-08-17T13:48:15.104Z,60.40
2022-08-17T13:50:30.297Z,60.80
2022-08-17T13:53:16.478Z,60.90
2022-08-17T13:56:37.279Z,61.10
2022-08-17T13:59:53.224Z,61.00
2022-08-17T14:02:19.816Z,60.40
2022-08-17T14:04:46.661Z,59.30
2022-08-17T14:06:58.669Z,59.10
2022-08-17T14:09:24.694Z,59.10
2022-08-17T14:12:12.011Z,59.00
2022-08-17T14:14:43.558Z,59.30
2022-08-17T14:17:19.411Z,58.50
2022-08-17T14:20:11.487Z,58.20
2022-08-17T14:22:44.041Z,57.80
2022-08-17T14:25:34.005Z,55.90
2022-08-17T14:28:25.732Z,55.90
2022-08-17T14:31:37.428Z,54.00
2022-08-17T14:34:08.594Z,54.70
2022-08-17T14:36:49.957Z,54.20
2022-08-17T14:40:19.751Z,54.20
2022-08-17T14:43:12.423Z,54.20
2022-08-17T14:48:46.556Z,55.20
2022-08-17T14:50:58.125Z,54.50
2022-08-17T14:56:31.685Z,55.30
2022-08-17T14:59:54.801Z,54.30
2022-08-17T15:02:53.418Z,55.90
2022-08-17T15:05:51.694Z,56.20
2022-08-17T15:08:37.886Z,58.70
2022-08-17T15:12:01.271Z,59.40
2022-08-17T15:16:04.971Z,59.60
2022-08-17T15:19:11.745Z,59.70
2022-08-17T15:23:52.640Z,61.70
2022-08-17T15:40:11.603Z,61.10
2022-08-17T15:43:44.478Z,60.80
2022-08-17T15:55:23.432Z,60.60
2022-08-17T15:59:33.702Z,60.60
2022-08-17T16:42:48.995Z,68.70
2022-08-17T16:51:02.922Z,67.30
2022-08-17T16:55:04.659Z,67.90
2022-08-17T17:02:35.603Z,69.20
2022-08-17T17:10:19.250Z,70.00
2022-08-17T17:13:52.826Z,71.30
2022-08-17T17:21:05.817Z,73.50
2022-08-17T17:23:28.202Z,74.50
2022-08-17T17:25:39.743Z,74.30
2022-08-17T17:27:52.212Z,74.60
2022-08-17T17:30:08.738Z,75.20
2022-08-17T17:32:20.971Z,76.00
2022-08-17T17:34:30.318Z,76.30
2022-08-17T17:36:40.866Z,76.80
2022-08-17T17:38:50.214Z,77.00
2022-08-17T17:41:02.349Z,78.00
2022-08-17T17:43:35.243Z,78.40
2022-08-17T17:45:44.833Z,78.40
2022-08-17T17:47:52.787Z,77.50
2022-08-17T17:49:57.210Z,76.60
2022-08-17T17:52:10.157Z,76.00
2022-08-17T17:54:32.546Z,75.20
2022-08-17T17:56:44.798Z,75.70
2022-08-17T17:58:56.734Z,75.80
2022-08-17T18:01:20.075Z,76.00
2022-08-17T18:03:32.987Z,76.50
2022-08-17T18:05:57.546Z,76.90
2022-08-17T18:08:13.100Z,76.90
2022-08-17T18:10:30.429Z,76.60
2022-08-17T18:12:44.749Z,77.30
2022-08-17T18:15:02.810Z,77.90
2022-08-17T18:17:10.717Z,78.10
2022-08-17T18:19:19.964Z,78.40
2022-08-17T18:21:27.668Z,77.50
2022-08-17T18:23:33.144Z,79.60
2022-08-17T18:25:44.656Z,80.30
2022-08-17T18:27:52.441Z,80.40
2022-08-17T18:29:58.227Z,81.00
2022-08-17T18:32:29.205Z,80.70
2022-08-17T18:34:47.379Z,79.20
2022-08-17T18:36:52.760Z,79.60
2022-08-17T18:39:12.941Z,78.50
2022-08-17T18:41:30.696Z,77.70
2022-08-17T18:43:53.334Z,78.10
2022-08-17T18:46:17.092Z,79.20
2022-08-17T18:48:50.686Z,79.60
2022-08-17T18:50:57.238Z,80.00
2022-08-17T18:53:38.271Z,80.10
2022-08-17T18:55:42.761Z,80.90
2022-08-17T18:57:49.622Z,80.90
2022-08-17T18:59:54.023Z,81.20
2022-08-17T19:02:13.846Z,81.40
2022-08-17T19:04:35.853Z,82.50
2022-08-17T19:06:40.789Z,84.30
2022-08-17T19:08:45.316Z,84.00
2022-08-17T19:10:52.747Z,82.00
2022-08-17T19:13:13.070Z,80.20
2022-08-17T19:15:28.126Z,80.50
2022-08-17T19:17:39.194Z,80.30
2022-08-17T19:19:53.574Z,79.70
2022-08-17T19:22:04.474Z,80.50
2022-08-17T19:24:19.451Z,81.00
2022-08-17T19:26:51.026Z,81.90
2022-08-17T19:28:56.968Z,82.50
2022-08-17T19:31:05.843Z,84.60
2022-08-17T19:33:10.440Z,84.30
2022-08-17T19:35:28.236Z,83.70
2022-08-17T19:37:40.267Z,81.20
2022-08-17T19:39:54.647Z,81.40
2022-08-17T19:42:04.374Z,83.10
2022-08-17T19:44:47.097Z,81.80
2022-08-17T19:47:00.846Z,80.70
2022-08-17T19:49:15.255Z,80.90
2022-08-17T19:51:30.639Z,81.70
2022-08-17T19:54:04.455Z,82.10
2022-08-17T19:56:16.255Z,83.00
2022-08-17T19:58:33.191Z,84.60
2022-08-17T20:00:41.356Z,85.90
2022-08-17T20:02:55.809Z,86.10
2022-08-17T20:05:06.344Z,85.50
2022-08-17T20:07:18.365Z,85.40
2022-08-17T20:09:33.577Z,85.90
2022-08-17T20:11:46.558Z,86.60
2022-08-17T20:13:59.820Z,87.30
2022-08-17T20:16:05.405Z,87.00
2022-08-17T20:18:18.595Z,87.20
2022-08-17T20:20:32.054Z,87.50
2022-08-17T20:22:51.797Z,88.20
2022-08-17T20:25:08.517Z,87.90
2022-08-17T20:27:21.722Z,88.00
2022-08-17T20:29:37.306Z,87.90
2022-08-17T20:31:49.550Z,88.60
2022-08-17T20:33:53.864Z,88.80
2022-08-17T20:36:18.214Z,88.70
2022-08-17T20:38:41.841Z,86.30
2022-08-17T20:41:16.894Z,86.60
2022-08-17T20:43:45.998Z,86.70
2022-08-17T20:46:07.499Z,86.90
2022-08-17T20:48:37.396Z,86.90
2022-08-17T20:50:46.847Z,86.50
2022-08-17T20:52:53.798Z,86.30
2022-08-17T20:54:59.501Z,86.50
2022-08-17T20:57:09.197Z,86.60
2022-08-17T20:59:55.338Z,86.90
2022-08-17T21:02:19.102Z,87.40
2022-08-17T21:04:46.352Z,87.50
2022-08-17T21:07:29.145Z,88.00
2022-08-17T21:09:33.538Z,88.30
2022-08-17T21:12:05.016Z,88.20
2022-08-17T21:14:17.774Z,88.10
2022-08-17T21:16:50.453Z,88.30
2022-08-17T21:19:16.945Z,88.40
2022-08-17T21:21:29.015Z,88.30
2022-08-17T21:23:47.586Z,88.60
2022-08-17T21:26:03.905Z,88.60
2022-08-17T21:28:20.352Z,88.30
2022-08-17T21:30:47.741Z,87.90
2022-08-17T21:33:21.571Z,87.80
2022-08-17T21:35:31.111Z,87.80
2022-08-17T21:37:43.568Z,87.80
2022-08-17T21:39:51.941Z,87.60
2022-08-17T21:41:57.746Z,87.60
2022-08-17T21:44:21.806Z,88.20
2022-08-17T21:46:31.546Z,88.50
2022-08-17T21:48:43.928Z,89.20
2022-08-17T21:50:59.596Z,89.60
2022-08-17T21:53:05.392Z,90.00
2022-08-17T21:55:29.159Z,90.20
2022-08-17T21:57:35.687Z,90.40
2022-08-17T21:59:43.782Z,90.60
2022-08-17T22:01:58.002Z,90.70
2022-08-17T22:04:05.668Z,90.70
2022-08-17T22:06:25.295Z,90.60
2022-08-17T22:08:29.651Z,90.60
2022-08-17T22:10:37.056Z,90.40
2022-08-17T22:12:42.745Z,90.10
2022-08-17T22:15:00.487Z,90.00
2022-08-17T22:17:17.700Z,89.90
2022-08-17T22:19:22.293Z,89.70
2022-08-17T22:21:27.205Z,89.70
2022-08-17T22:24:03.221Z,89.90
2022-08-17T22:26:12.710Z,89.40
2022-08-17T22:28:37.639Z,89.40
2022-08-17T22:31:01.275Z,89.60
2022-08-17T22:33:31.478Z,90.20
2022-08-17T22:35:43.428Z,90.40
2022-08-17T22:37:47.776Z,90.70
2022-08-17T22:39:59.976Z,91.00
2022-08-17T22:42:04.565Z,91.10
2022-08-17T22:44:23.216Z,91.40
2022-08-17T22:46:30.300Z,91.50
2022-08-17T22:48:35.495Z,91.70
2022-08-17T22:50:39.913Z,91.70
2022-08-17T22:52:59.604Z,91.90
2022-08-17T22:55:30.756Z,92.00
2022-08-17T22:57:54.021Z,92.00
2022-08-17T22:59:58.778Z,92.00
2022-08-17T23:02:21.111Z,92.00
2022-08-17T23:04:34.087Z,92.20
2022-08-17T23:06:40.253Z,92.50
2022-08-17T23:08:49.814Z,92.60
2022-08-17T23:10:55.459Z,92.60
2022-08-17T23:13:00.597Z,92.60
2022-08-17T23:15:07.051Z,92.70
2022-08-17T23:17:11.378Z,92.90
2022-08-17T23:19:22.098Z,93.10
2022-08-17T23:21:30.178Z,93.50
2022-08-17T23:23:37.144Z,93.50
2022-08-17T23:25:44.605Z,93.30
2022-08-17T23:27:50.806Z,93.00
2022-08-17T23:29:55.794Z,93.10
2022-08-17T23:32:01.494Z,93.20
2022-08-17T23:34:09.086Z,93.30
2022-08-17T23:36:16.495Z,93.50
2022-08-17T23:38:20.897Z,93.50
2022-08-17T23:40:25.405Z,93.40
2022-08-17T23:42:30.604Z,93.20
2022-08-17T23:44:35.216Z,93.30
2022-08-17T23:46:40.811Z,93.30
2022-08-17T23:48:45.911Z,93.40
2022-08-17T23:50:51.740Z,93.30
2022-08-17T23:52:57.498Z,93.20
2022-08-17T23:55:01.755Z,93.00
2022-08-17T23:57:09.252Z,92.80
2022-08-17T23:59:14.990Z,92.70
